Home > Products > Valid Products > MTR

000
SAUS43 KMQT 240857
MTRP53
METAR KP53 240856Z AUTO 23004KT 09/07 A2998 RMK AO1 SLP155 T00940072
50001





000
SAUS43 KMQT 240856
MTRP59
METAR KP59 240851Z AUTO 00000KT 09/07 A2994 RMK AO1 SLP143 T00890072
58005





000
SAUS43 KMQT 240757
MTRP53
METAR KP53 240756Z AUTO 00000KT 09/08 A2998 RMK AO1 SLP156 T00940078





000
SAUS43 KMQT 240756
MTRP59
METAR KP59 240751Z AUTO 00000KT 09/08 A2995 RMK AO1 SLP146 T00940078





000
SAUS43 KMQT 240657
MTRP53
METAR KP53 240656Z AUTO 00000KT 10/08 A2999 RMK AO1 SLP157 T01000078





000
SAUS43 KMQT 240656
MTRP59
METAR KP59 240651Z AUTO 00000KT 09/08 A2996 RMK AO1 SLP149 T00940078





000
SAUS43 KMQT 240603 COR
MTRP53
METAR KP53 240556Z AUTO 21007KT 10/08 A2997 RMK AO1 SLP153 60001
T01000078 10106 20100 56006





000
SAUS43 KMQT 240559 COR
MTRP59
METAR KP59 240551Z AUTO 00000KT 09/08 A2996 RMK AO1 SLP147 60001
T00940078 10094 20089 55000





000
SAUS43 KMQT 240457
MTRP53
METAR KP53 240456Z AUTO 20006KT 10/08 A2998 RMK AO1 SLP154 T01000078
401500028





000
SAUS43 KMQT 240457
MTRP53
METAR KP53 240456Z AUTO 20006KT 10/08 A2998 RMK AO1 SLP154 T01000078
401500028





000
SAUS43 KMQT 240456
MTRP59
METAR KP59 240451Z AUTO 00000KT 09/08 A2996 RMK AO1 SLP146 T00940078
401060044





000
SAUS43 KMQT 240456
MTRP59
METAR KP59 240451Z AUTO 00000KT 09/08 A2996 RMK AO1 SLP146 T00940078
401060044





000
SAUS43 KMQT 240357
MTRP53
METAR KP53 240356Z AUTO 19006KT 10/08 A2998 RMK AO1 SLP156 T01000078





000
SAUS43 KMQT 240357
MTRP53
METAR KP53 240356Z AUTO 19006KT 10/08 A2998 RMK AO1 SLP156 T01000078





000
SAUS43 KMQT 240356
MTRP59
METAR KP59 240351Z AUTO 24003KT 09/08 A2996 RMK AO1 SLP148 T00890078





000
SAUS43 KMQT 240356
MTRP59
METAR KP59 240351Z AUTO 24003KT 09/08 A2996 RMK AO1 SLP148 T00890078





000
SAUS43 KMQT 240303 COR
MTRP53
METAR KP53 240256Z AUTO 19008KT 10/08 A2999 RMK AO1 SLP160 P0001
60001 T01000078 58004





000
SAUS43 KMQT 240303 COR
MTRP53
METAR KP53 240256Z AUTO 19008KT 10/08 A2999 RMK AO1 SLP160 P0001
60001 T01000078 58004





000
SAUS43 KMQT 240255
MTRP59
METAR KP59 240251Z AUTO 24006KT 09/08 A2996 RMK AO1 SLP148 60001
T00890078 58002





000
SAUS43 KMQT 240255
MTRP59
METAR KP59 240251Z AUTO 24006KT 09/08 A2996 RMK AO1 SLP148 60001
T00890078 58002





000
SAUS43 KMQT 240157
MTRP53
METAR KP53 240156Z AUTO 19007KT 11/07 A3001 RMK AO1 SLP167 T01060072





000
SAUS43 KMQT 240157
MTRP53
METAR KP53 240156Z AUTO 19007KT 11/07 A3001 RMK AO1 SLP167 T01060072





000
SAUS43 KMQT 240156
MTRP59
METAR KP59 240151Z AUTO 24006KT 09/08 A2996 RMK AO1 SLP149 T00890078





000
SAUS43 KMQT 240156
MTRP59
METAR KP59 240151Z AUTO 24006KT 09/08 A2996 RMK AO1 SLP149 T00890078





000
SAUS43 KMQT 240057
MTRP53
METAR KP53 240056Z AUTO 19009KT 11/08 A3000 RMK AO1 SLP165 T01060078





000
SAUS43 KMQT 240056
MTRP59
METAR KP59 240051Z AUTO 24005KT 09/08 A2997 RMK AO1 SLP152 P0001
T00890078





000
SAUS43 KMQT 232357
MTRP53
METAR KP53 232356Z AUTO 18009KT 11/08 A3000 RMK AO1 SLP165 T01060078
10144 20106 58006





000
SAUS43 KMQT 232356
MTRP59
METAR KP59 232351Z AUTO 24007KT 09/07 A2997 RMK AO1 SLP151 60014
T00890072 10106 20083 56006





000
SAUS43 KMQT 232257
MTRP53
METAR KP53 232256Z AUTO 18008KT 11/07 A3002 RMK AO1 SLP169 T01110072





000
SAUS43 KMQT 232256
MTRP59
METAR KP59 232251Z AUTO 24006KT 08/07 A2997 RMK AO1 SLP153 P0002
T00830072





000
SAUS43 KMQT 232203 COR
MTRP53
METAR KP53 232156Z AUTO 20006KT 11/07 A3002 RMK AO1 SLP168 T01110072





000
SAUS43 KMQT 232158 COR
MTRP59
METAR KP59 232151Z AUTO 21004KT 09/07 A2997 RMK AO1 SLP152 P0006
T00890072





000
SAUS43 KMQT 232103 COR
MTRP53
METAR KP53 232056Z AUTO 19012G17KT 13/06 A3002 RMK AO1 SLP171
T01280056 56010





000
SAUS43 KMQT 232055
MTRP59
METAR KP59 232051Z AUTO 00000KT 09/07 A2998 RMK AO1 SLP158 P0002
60006 T00890072 56004





000
SAUS43 KMQT 232003 COR
MTRP53
METAR KP53 231956Z AUTO 18011G18KT 13/06 A3003 RMK AO1 SLP172
T01330056





000
SAUS43 KMQT 231955
MTRP59
METAR KP59 231951Z AUTO 21003KT 09/07 A2999 RMK AO1 SLP159 P0001
T00890072





000
SAUS43 KMQT 231955
MTRP59
METAR KP59 231951Z AUTO 21003KT 09/07 A2999 RMK AO1 SLP159 P0001
T00890072





000
SAUS43 KMQT 231903 COR
MTRP53
METAR KP53 231856Z AUTO 18013G20KT 14/05 A3004 RMK AO1 SLP178
T01390050





000
SAUS43 KMQT 231903 COR
MTRP53
METAR KP53 231856Z AUTO 18013G20KT 14/05 A3004 RMK AO1 SLP178
T01390050





000
SAUS43 KMQT 231855
MTRP59
METAR KP59 231851Z AUTO 23005KT 09/07 A2999 RMK AO1 SLP159 P0003
T00940072





000
SAUS43 KMQT 231855
MTRP59
METAR KP59 231851Z AUTO 23005KT 09/07 A2999 RMK AO1 SLP159 P0003
T00940072





000
SAUS43 KMQT 231757
MTRP53
METAR KP53 231756Z AUTO 19014G20KT 14/04 A3005 RMK AO1 SLP181
T01440044 10150 20033 58018





000
SAUS43 KMQT 231757
MTRP53
METAR KP53 231756Z AUTO 19014G20KT 14/04 A3005 RMK AO1 SLP181
T01440044 10150 20033 58018





000
SAUS43 KMQT 231755
MTRP59
METAR KP59 231751Z AUTO VRB03KT 11/06 A3000 RMK AO1 SLP161 T01060056
10106 20072 58004





000
SAUS43 KMQT 231755
MTRP59
METAR KP59 231751Z AUTO VRB03KT 11/06 A3000 RMK AO1 SLP161 T01060056
10106 20072 58004





000
SAUS43 KMQT 231703 COR
MTRP53
METAR KP53 231656Z AUTO 18012KT 13/05 A3007 RMK AO1 SLP188 T01330050





000
SAUS43 KMQT 231703 COR
MTRP53
METAR KP53 231656Z AUTO 18012KT 13/05 A3007 RMK AO1 SLP188 T01330050





000
SAUS43 KMQT 231656
MTRP59
METAR KP59 231651Z AUTO 23006KT 10/04 A3002 RMK AO1 SLP170 T01000044





000
SAUS43 KMQT 231656
MTRP59
METAR KP59 231651Z AUTO 23006KT 10/04 A3002 RMK AO1 SLP170 T01000044





000
SAUS43 KMQT 231603 COR
MTRP53
METAR KP53 231556Z AUTO 19010G21KT 11/06 A3009 RMK AO1 SLP193
T01110056





000
SAUS43 KMQT 231600 COR
MTRP59
METAR KP59 231551Z AUTO 24009KT 10/04 A3001 RMK AO1 SLP166 T01000044





000
SAUS43 KMQT 231600 COR
MTRP59
METAR KP59 231551Z AUTO 24009KT 10/04 A3001 RMK AO1 SLP166 T01000044





000
SAUS43 KMQT 231457
MTRP53
METAR KP53 231456Z AUTO 19013G18KT 09/06 A3011 RMK AO1 SLP200
T00940056 58011





000
SAUS43 KMQT 231457
MTRP53
METAR KP53 231456Z AUTO 19013G18KT 09/06 A3011 RMK AO1 SLP200
T00940056 58011





000
SAUS43 KMQT 231456
MTRP59
METAR KP59 231451Z AUTO 23011G18KT 10/04 A3001 RMK AO1 SLP165
T01000044 56013





000
SAUS43 KMQT 231357
MTRP53
METAR KP53 231356Z AUTO 19010KT 07/04 A3012 RMK AO1 SLP205 T00670044





000
SAUS43 KMQT 231356
MTRP59
METAR KP59 231351Z AUTO 23011G18KT 08/05 A3002 RMK AO1 SLP168
T00830050





000
SAUS43 KMQT 231257
MTRP53
METAR KP53 231256Z AUTO 19007KT 04/03 A3013 RMK AO1 SLP209 T00440028





000
SAUS43 KMQT 231256
MTRP59
METAR KP59 231251Z AUTO 23010G17KT 08/04 A3003 RMK AO1 SLP174
T00780044





000
SAUS43 KMQT 231203 COR
MTRP53
METAR KP53 231156Z AUTO 19007KT 04/02 A3014 RMK AO1 SLP213 T00390022
10044 20033 58009





000
SAUS43 KMQT 231155
MTRP59
METAR KP59 231151Z AUTO 23010G17KT 07/04 A3005 RMK AO1 SLP179 7////
T00720044 10078 20044 56015





000
SAUS43 KMQT 231103 COR
MTRP53
METAR KP53 231056Z AUTO 19005KT 03/02 A3017 RMK AO1 SLP221 T00330017





000
SAUS43 KMQT 231055
MTRP59
METAR KP59 231051Z AUTO 24011G17KT 08/04 A3006 RMK AO1 SLP182
T00780039





000
SAUS43 KMQT 230957
MTRP53
METAR KP53 230956Z AUTO 17005KT 04/02 A3017 RMK AO1 SLP220 T00390017





000
SAUS43 KMQT 230957
MTRP53
METAR KP53 230956Z AUTO 17005KT 04/02 A3017 RMK AO1 SLP220 T00390017





000
SAUS43 KMQT 230956
MTRP59
METAR KP59 230951Z AUTO 23007KT 07/04 A3008 RMK AO1 SLP190 T00720044





000
SAUS43 KMQT 230956
MTRP59
METAR KP59 230951Z AUTO 23007KT 07/04 A3008 RMK AO1 SLP190 T00720044





000
SAUS43 KMQT 230857
MTRP53
METAR KP53 230856Z AUTO 19006KT 04/02 A3017 RMK AO1 SLP220 T00390017
56011





000
SAUS43 KMQT 230856
MTRP59
METAR KP59 230851Z AUTO 22007KT 07/04 A3009 RMK AO1 SLP194 T00670039
58005





000
SAUS43 KMQT 230803 COR
MTRP53
METAR KP53 230756Z AUTO 19007KT 03/01 A3018 RMK AO1 SLP223 T00330011





000
SAUS43 KMQT 230755
MTRP59
METAR KP59 230751Z AUTO 22004KT 05/03 A3012 RMK AO1 SLP204 T00500033





000
SAUS43 KMQT 230657
MTRP53
METAR KP53 230656Z AUTO 18006KT 04/01 A3019 RMK AO1 SLP226 T00390011





000
SAUS43 KMQT 230656
MTRP59
METAR KP59 230651Z AUTO VRB03KT 06/04 A3012 RMK AO1 SLP204 T00610039





000
SAUS43 KMQT 230557
MTRP53
METAR KP53 230556Z AUTO 19007KT 03/01 A3020 RMK AO1 SLP231 T00330006
10056 20028 58015





000
SAUS43 KMQT 230556
MTRP59
METAR KP59 230551Z AUTO 23011G18KT 06/04 A3011 RMK AO1 SLP199
T00610039 10089 20061 55010





000
SAUS43 KMQT 230503 COR
MTRP53
METAR KP53 230456Z AUTO 19006KT 03/01 A3022 RMK AO1 SLP238 T00280006
401281022





000
SAUS43 KMQT 230503 COR
MTRP53
METAR KP53 230456Z AUTO 19006KT 03/01 A3022 RMK AO1 SLP238 T00280006
401281022





000
SAUS43 KMQT 230459 COR
MTRP59
METAR KP59 230451Z AUTO 24012G20KT 07/03 A3010 RMK AO1 SLP197
T00670033 401000033





000
SAUS43 KMQT 230459 COR
MTRP59
METAR KP59 230451Z AUTO 24012G20KT 07/03 A3010 RMK AO1 SLP197
T00670033 401000033





000
SAUS43 KMQT 230357
MTRP53
METAR KP53 230356Z AUTO 19006KT 03/01 A3024 RMK AO1 SLP246 T00280006





000
SAUS43 KMQT 230357
MTRP53
METAR KP53 230356Z AUTO 19006KT 03/01 A3024 RMK AO1 SLP246 T00280006





000
SAUS43 KMQT 230356
MTRP59
METAR KP59 230351Z AUTO 23010G18KT 07/03 A3012 RMK AO1 SLPNO
T00720033





000
SAUS43 KMQT 230356
MTRP59
METAR KP59 230351Z AUTO 23010G18KT 07/03 A3012 RMK AO1 SLPNO
T00720033





000
SAUS43 KMQT 230257
MTRP53
METAR KP53 230256Z AUTO 19006KT 03/01 A3024 RMK AO1 SLP248 T00330006
56002





000
SAUS43 KMQT 230255
MTRP59
METAR KP59 230251Z AUTO 21011G19KT 07/03 A3013 RMK AO1 SLP210
T00720033 58016





000
SAUS43 KMQT 230158
MTRP53
METAR KP53 230156Z AUTO 19007KT 04/01 A3024 RMK AO1 SLP248 T00390006





000
SAUS43 KMQT 230158
MTRP53
METAR KP53 230156Z AUTO 19007KT 04/01 A3024 RMK AO1 SLP248 T00390006





000
SAUS43 KMQT 230156
MTRP59
METAR KP59 230151Z AUTO 21007KT 08/03 A3015 RMK AO1 SLP216 T00780033





000
SAUS43 KMQT 230156
MTRP59
METAR KP59 230151Z AUTO 21007KT 08/03 A3015 RMK AO1 SLP216 T00780033





000
SAUS43 KMQT 230104 COR
MTRP53
METAR KP53 230056Z AUTO 19005KT 04/01 A3024 RMK AO1 SLP249 T00390006





000
SAUS43 KMQT 230104 COR
MTRP53
METAR KP53 230056Z AUTO 19005KT 04/01 A3024 RMK AO1 SLP249 T00390006





000
SAUS43 KMQT 230055
MTRP59
METAR KP59 230051Z AUTO 00000KT 08/03 A3017 RMK AO1 SLP224 T00830028





000
SAUS43 KMQT 230055
MTRP59
METAR KP59 230051Z AUTO 00000KT 08/03 A3017 RMK AO1 SLP224 T00830028





000
SAUS43 KMQT 230003 COR
MTRP53
METAR KP53 222356Z AUTO 17006KT 06/01 A3025 RMK AO1 SLP252 T00610011
10128 20061 56009





000
SAUS43 KMQT 230003 COR
MTRP53
METAR KP53 222356Z AUTO 17006KT 06/01 A3025 RMK AO1 SLP252 T00610011
10128 20061 56009





000
SAUS43 KMQT 230000 COR
MTRP59
METAR KP59 222351Z AUTO VRB04KT 09/03 A3018 RMK AO1 SLP226 T00890033
10100 20089 55010





000
SAUS43 KMQT 230000 COR
MTRP59
METAR KP59 222351Z AUTO VRB04KT 09/03 A3018 RMK AO1 SLP226 T00890033
10100 20089 55010





000
SAUS43 KMQT 222303 COR
MTRP53
METAR KP53 222256Z AUTO 16005KT 08/01 A3025 RMK AO1 SLP252 T00830011





000
SAUS43 KMQT 222303 COR
MTRP53
METAR KP53 222256Z AUTO 16005KT 08/01 A3025 RMK AO1 SLP252 T00830011





000
SAUS43 KMQT 222256
MTRP59
METAR KP59 222251Z AUTO 19011G19KT 150V230 09/03 A3017 RMK AO1
SLP223 T00890028





000
SAUS43 KMQT 222256
MTRP59
METAR KP59 222251Z AUTO 19011G19KT 150V230 09/03 A3017 RMK AO1
SLP223 T00890028





000
SAUS43 KMQT 222203 COR
MTRP53
METAR KP53 222156Z AUTO 18008KT 11/01 A3026 RMK AO1 SLP254 T01060006





000
SAUS43 KMQT 222155
MTRP59
METAR KP59 222151Z AUTO 19009G19KT 09/03 A3018 RMK AO1 SLP227
T00940033





000
SAUS43 KMQT 222057
MTRP53
METAR KP53 222056Z AUTO 19011KT 12/00 A3028 RMK AO1 SLP259 T01170000
56022





000
SAUS43 KMQT 222056
MTRP59
METAR KP59 222051Z AUTO 19007G18KT 09/03 A3021 RMK AO1 SLP236
T00940028 56025





000
SAUS43 KMQT 221957
MTRP53
METAR KP53 221956Z AUTO 19009G15KT 12/01 A3029 RMK AO1 SLP264
T01220011





000
SAUS43 KMQT 221956
MTRP59
METAR KP59 221951Z AUTO 22008KT 180V270 09/03 A3023 RMK AO1 SLP243
T00940028





000
SAUS43 KMQT 221903 COR
MTRP53
METAR KP53 221856Z AUTO 19009KT 12/01 A3032 RMK AO1 SLP274 T01170006





000
SAUS43 KMQT 221900 COR
MTRP59
METAR KP59 221851Z AUTO VRB06KT 09/02 A3025 RMK AO1 SLP250 T00940022





000
SAUS43 KMQT 221757
MTRP53
METAR KP53 221756Z AUTO 21008KT 11/01 A3034 RMK AO1 SLP282 T01110011
10111 21006 58014





000
SAUS43 KMQT 221757
MTRP53
METAR KP53 221756Z AUTO 21008KT 11/01 A3034 RMK AO1 SLP282 T01110011
10111 21006 58014





000
SAUS43 KMQT 221756
MTRP59
METAR KP59 221751Z AUTO 20008G14KT 150V250 09/01 A3029 RMK AO1
SLP262 6//// T00940006 10094 20033 58012





000
SAUS43 KMQT 221756
MTRP59
METAR KP59 221751Z AUTO 20008G14KT 150V250 09/01 A3029 RMK AO1
SLP262 6//// T00940006 10094 20033 58012





000
SAUS43 KMQT 221703 COR
MTRP53
METAR KP53 221656Z AUTO 16008KT 10/02 A3036 RMK AO1 SLP288 T01000017





000
SAUS43 KMQT 221703 COR
MTRP53
METAR KP53 221656Z AUTO 16008KT 10/02 A3036 RMK AO1 SLP288 T01000017





000
SAUS43 KMQT 221700 COR
MTRP59
METAR KP59 221651Z AUTO 24008KT 08/01 A3030 RMK AO1 SLP268 T00830011





000
SAUS43 KMQT 221700 COR
MTRP59
METAR KP59 221651Z AUTO 24008KT 08/01 A3030 RMK AO1 SLP268 T00830011





000
SAUS43 KMQT 221603 COR
MTRP53
METAR KP53 221556Z AUTO 17007KT 09/02 A3038 RMK AO1 SLP293 T00940022





000
SAUS43 KMQT 221603 COR
MTRP53
METAR KP53 221556Z AUTO 17007KT 09/02 A3038 RMK AO1 SLP293 T00940022





000
SAUS43 KMQT 221600 COR
MTRP59
METAR KP59 221551Z AUTO A3032 RMK AO1 SLPNO PNO $





000
SAUS43 KMQT 221600 COR
MTRP59
METAR KP59 221551Z AUTO A3032 RMK AO1 SLPNO PNO $





000
SAUS43 KMQT 221457
MTRP53
METAR KP53 221456Z AUTO 18005KT 06/02 A3038 RMK AO1 SLP297 T00610017
52003





000
SAUS43 KMQT 221456
MTRP59
METAR KP59 221451Z AUTO 23011G18KT 07/00 A3032 RMK AO1 SLP276
T00670000 50002





000
SAUS43 KMQT 221357
MTRP53
METAR KP53 221356Z AUTO 21005KT 02/M01 A3038 RMK AO1 SLP295
T00221006





000
SAUS43 KMQT 221356
MTRP59
METAR KP59 221351Z AUTO 23011G16KT 05/01 A3032 RMK AO1 SLP277
T00500006





000
SAUS43 KMQT 221257
MTRP53
METAR KP53 221256Z AUTO 22003KT 00/M02 A3038 RMK AO1 SLP296
T00001022





000
SAUS43 KMQT 221256
MTRP59
METAR KP59 221251Z AUTO 23010G16KT 03/00 A3032 RMK AO1 SLP279
T00330000





000
SAUS43 KMQT 221203 COR
MTRP53
METAR KP53 221156Z AUTO 22003KT M01/M03 A3037 RMK AO1 SLP294
T10061028 10006 21022 51012 $





000
SAUS43 KMQT 221155
MTRP59
METAR KP59 221151Z AUTO 23008G15KT 04/00 A3032 RMK AO1 SLP276
T00390000 10050 20039 53006





000
SAUS43 KMQT 221057
MTRP53
METAR KP53 221056Z AUTO 23003KT 00/M03 A3036 RMK AO1 SLP290
T00001028 $





000
SAUS43 KMQT 221057
MTRP53
METAR KP53 221056Z AUTO 23003KT 00/M03 A3036 RMK AO1 SLP290
T00001028 $





000
SAUS43 KMQT 221055
MTRP59
METAR KP59 221051Z AUTO 23010G16KT 04/00 A3030 RMK AO1 SLP270
T00390000





000
SAUS43 KMQT 221003 COR
MTRP53
METAR KP53 220956Z AUTO 00000KT 00/M02 A3035 RMK AO1 SLP285
T00001022 $





000
SAUS43 KMQT 221003 COR
MTRP53
METAR KP53 220956Z AUTO 00000KT 00/M02 A3035 RMK AO1 SLP285
T00001022 $





000
SAUS43 KMQT 221000 COR
MTRP59
METAR KP59 220951Z AUTO 22008KT 04/00 A3031 RMK AO1 SLP270 T00440000





000
SAUS43 KMQT 221000 COR
MTRP59
METAR KP59 220951Z AUTO 22008KT 04/00 A3031 RMK AO1 SLP270 T00440000





000
SAUS43 KMQT 220857
MTRP53
METAR KP53 220856Z AUTO 22003KT 00/M03 A3034 RMK AO1 SLP280
T00001028 51004 $





000
SAUS43 KMQT 220855
MTRP59
METAR KP59 220851Z AUTO 23010KT 04/01 A3030 RMK AO1 SLP268 T00440011
58001





000
SAUS43 KMQT 220757
MTRP53
METAR KP53 220756Z AUTO 00000KT M02/M04 A3034 RMK AO1 SLP281
T10171039





000
SAUS43 KMQT 220756
MTRP59
METAR KP59 220751Z AUTO VRB05KT 04/02 A3031 RMK AO1 SLP269 T00440017





000
SAUS43 KMQT 220657
MTRP53
METAR KP53 220656Z AUTO 19003KT M02/M04 A3033 RMK AO1 SLP279
T10221044





000
SAUS43 KMQT 220656
MTRP59
METAR KP59 220651Z AUTO 20004KT 04/01 A3031 RMK AO1 SLP270 T00390011





000
SAUS43 KMQT 220557
MTRP53
METAR KP53 220556Z AUTO 19006KT M02/M04 A3033 RMK AO1 SLP277
T10171039 10050 21017 53001





000
SAUS43 KMQT 220557
MTRP53
METAR KP53 220556Z AUTO 19006KT M02/M04 A3033 RMK AO1 SLP277
T10171039 10050 21017 53001





000
SAUS43 KMQT 220556
MTRP59
METAR KP59 220551Z AUTO 00000KT 04/01 A3030 RMK AO1 SLP270 T00390006
10039 20006 53001





000
SAUS43 KMQT 220556
MTRP59
METAR KP59 220551Z AUTO 00000KT 04/01 A3030 RMK AO1 SLP270 T00390006
10039 20006 53001





000
SAUS43 KMQT 220457
MTRP53
METAR KP53 220456Z AUTO 18007KT M01/M03 A3031 RMK AO1 SLP273
T10111033 400831011





000
SAUS43 KMQT 220457
MTRP53
METAR KP53 220456Z AUTO 18007KT M01/M03 A3031 RMK AO1 SLP273
T10111033 400831011





000
SAUS43 KMQT 220456
MTRP59
METAR KP59 220451Z AUTO 18004KT 04/01 A3029 RMK AO1 SLP266 T00390006
400670006





000
SAUS43 KMQT 220456
MTRP59
METAR KP59 220451Z AUTO 18004KT 04/01 A3029 RMK AO1 SLP266 T00390006
400670006





000
SAUS43 KMQT 220403 COR
MTRP53
METAR KP53 220356Z AUTO 18005KT M01/M03 A3032 RMK AO1 SLP273
T10061028





000
SAUS43 KMQT 220403 COR
MTRP53
METAR KP53 220356Z AUTO 18005KT M01/M03 A3032 RMK AO1 SLP273
T10061028





000
SAUS43 KMQT 220355
MTRP59
METAR KP59 220351Z AUTO 00000KT 02/00 A3030 RMK AO1 SLP269 T00220000





000
SAUS43 KMQT 220257
MTRP53
METAR KP53 220256Z AUTO 19006KT M01/M03 A3032 RMK AO1 SLP275
T10061028 53009





000
SAUS43 KMQT 220255
MTRP59
METAR KP59 220251Z AUTO 19003KT 03/M01 A3030 RMK AO1 SLP268
T00281006 53002





000
SAUS43 KMQT 220255
MTRP59
METAR KP59 220251Z AUTO 19003KT 03/M01 A3030 RMK AO1 SLP268
T00281006 53002





000
SAUS43 KMQT 220203 COR
MTRP53
METAR KP53 220156Z AUTO 20004KT 00/M02 A3031 RMK AO1 SLP270
T00001022





000
SAUS43 KMQT 220203 COR
MTRP53
METAR KP53 220156Z AUTO 20004KT 00/M02 A3031 RMK AO1 SLP270
T00001022





000
SAUS43 KMQT 220155
MTRP59
METAR KP59 220151Z AUTO 00000KT 01/M01 A3030 RMK AO1 SLP269
T00111011





000
SAUS43 KMQT 220155
MTRP59
METAR KP59 220151Z AUTO 00000KT 01/M01 A3030 RMK AO1 SLP269
T00111011





000
SAUS43 KMQT 220057
MTRP53
METAR KP53 220056Z AUTO 12004KT 03/M01 A3030 RMK AO1 SLP266
T00281011





000
SAUS43 KMQT 220056
MTRP59
METAR KP59 220051Z AUTO 20004KT 02/M01 A3029 RMK AO1 SLP265
T00221006





000
SAUS43 KMQT 212357
MTRP53
METAR KP53 212356Z AUTO 08006KT 05/01 A3029 RMK AO1 SLP265 T00500006
10072 20050 53008





000
SAUS43 KMQT 212356
MTRP59
METAR KP59 212351Z AUTO 00000KT 01/M01 A3029 RMK AO1 SLP267
T00111006 10067 20011 53004





000
SAUS43 KMQT 212257
MTRP53
METAR KP53 212256Z AUTO 01008KT 06/01 A3028 RMK AO1 SLP261 T00560006





000
SAUS43 KMQT 212257
MTRP53
METAR KP53 212256Z AUTO 01008KT 06/01 A3028 RMK AO1 SLP261 T00560006





000
SAUS43 KMQT 212256
MTRP59
METAR KP59 212251Z AUTO 19003KT 04/M01 A3029 RMK AO1 SLP264
T00391006





000
SAUS43 KMQT 212256
MTRP59
METAR KP59 212251Z AUTO 19003KT 04/M01 A3029 RMK AO1 SLP264
T00391006





000
SAUS43 KMQT 212204 COR
MTRP53
METAR KP53 212156Z AUTO 02010KT 06/01 A3028 RMK AO1 SLP260 T00610006





000
SAUS43 KMQT 212204 COR
MTRP53
METAR KP53 212156Z AUTO 02010KT 06/01 A3028 RMK AO1 SLP260 T00610006





000
SAUS43 KMQT 212155
MTRP59
METAR KP59 212151Z AUTO 12006KT 05/00 A3028 RMK AO1 SLP263 T00500000





000
SAUS43 KMQT 212155
MTRP59
METAR KP59 212151Z AUTO 12006KT 05/00 A3028 RMK AO1 SLP263 T00500000





000
SAUS43 KMQT 212104 COR
MTRP53
METAR KP53 212056Z AUTO 01012KT 07/01 A3027 RMK AO1 SLP255 T00670011
53001





000
SAUS43 KMQT 212054
MTRP59
METAR KP59 212051Z AUTO 11006KT 06/00 A3028 RMK AO1 SLP262 T00560000
50000





000
SAUS43 KMQT 211957
MTRP53
METAR KP53 211956Z AUTO 02012KT 07/02 A3026 RMK AO1 SLP253 T00720017





000
SAUS43 KMQT 211957
MTRP53
METAR KP53 211956Z AUTO 02012KT 07/02 A3026 RMK AO1 SLP253 T00720017





000
SAUS43 KMQT 211956
MTRP59
METAR KP59 211951Z AUTO VRB05KT 06/01 A3028 RMK AO1 SLP262 T00610006





000
SAUS43 KMQT 211857
MTRP53
METAR KP53 211856Z AUTO 04013KT 07/01 A3025 RMK AO1 SLP249 T00670011





000
SAUS43 KMQT 211856
MTRP59
METAR KP59 211851Z AUTO 11008KT 06/01 A3029 RMK AO1 SLP262 T00610006





000
SAUS43 KMQT 211803 COR
MTRP53
METAR KP53 211756Z AUTO 03013KT 07/01 A3027 RMK AO1 SLP254 T00670011
10083 20061 50006





000
SAUS43 KMQT 211754
MTRP59
METAR KP59 211751Z AUTO VRB04KT 06/01 A3028 RMK AO1 SLP262 T00610006
10067 20050 58001





000
SAUS43 KMQT 211703 COR
MTRP53
METAR KP53 211656Z AUTO 01015KT 06/02 A3027 RMK AO1 SLP255 T00610017





000
SAUS43 KMQT 211659 COR
MTRP59
METAR KP59 211651Z AUTO 10005KT 06/00 A3029 RMK AO1 SLP265 T00610000





000
SAUS43 KMQT 211659 COR
MTRP59
METAR KP59 211651Z AUTO 10005KT 06/00 A3029 RMK AO1 SLP265 T00610000





000
SAUS43 KMQT 211557
MTRP53
METAR KP53 211556Z AUTO 04015KT 07/02 A3026 RMK AO1 SLP252 T00720017





000
SAUS43 KMQT 211557
MTRP53
METAR KP53 211556Z AUTO 04015KT 07/02 A3026 RMK AO1 SLP252 T00720017





000
SAUS43 KMQT 211556
MTRP59
METAR KP59 211551Z AUTO VRB05KT 06/01 A3029 RMK AO1 SLP265 T00610011





000
SAUS43 KMQT 211556
MTRP59
METAR KP59 211551Z AUTO VRB05KT 06/01 A3029 RMK AO1 SLP265 T00610011





000
SAUS43 KMQT 211457
MTRP53
METAR KP53 211456Z AUTO 03015KT 08/02 A3025 RMK AO1 SLP248 T00780017
53026





000
SAUS43 KMQT 211456
MTRP59
METAR KP59 211451Z AUTO 09003KT 06/01 A3029 RMK AO1 SLP262 T00560011
51021





000
SAUS43 KMQT 211357
MTRP53
METAR KP53 211356Z AUTO 03014KT 08/02 A3022 RMK AO1 SLP238 T00780022





000
SAUS43 KMQT 211356
MTRP59
METAR KP59 211351Z AUTO VRB04KT 05/01 A3027 RMK AO1 SLP257 T00500006





000
SAUS43 KMQT 211303 COR
MTRP53
METAR KP53 211256Z AUTO 05012KT 07/03 A3020 RMK AO1 SLP232 T00720028





000
SAUS43 KMQT 211258 COR
MTRP59
METAR KP59 211251Z AUTO VRB05KT 05/01 A3024 RMK AO1 SLP248 T00500011





000
SAUS43 KMQT 211157
MTRP53
METAR KP53 211156Z AUTO 02012KT 07/03 A3017 RMK AO1 SLP222 70004
T00720033 10083 20072 52023





000
SAUS43 KMQT 211157
MTRP53
METAR KP53 211156Z AUTO 02012KT 07/03 A3017 RMK AO1 SLP222 70004
T00720033 10083 20072 52023





000
SAUS43 KMQT 211156
MTRP59
METAR KP59 211151Z AUTO 09007KT 05/01 A3022 RMK AO1 SLP241 T00500011
10056 20044 53016





000
SAUS43 KMQT 211156
MTRP59
METAR KP59 211151Z AUTO 09007KT 05/01 A3022 RMK AO1 SLP241 T00500011
10056 20044 53016





000
SAUS43 KMQT 211057
MTRP53
METAR KP53 211056Z AUTO 03015KT 07/03 A3015 RMK AO1 SLP215 T00720033





000
SAUS43 KMQT 211057
MTRP53
METAR KP53 211056Z AUTO 03015KT 07/03 A3015 RMK AO1 SLP215 T00720033





000
SAUS43 KMQT 211056
MTRP59
METAR KP59 211051Z AUTO 09005KT 04/01 A3020 RMK AO1 SLP235 T00440011





000
SAUS43 KMQT 211056
MTRP59
METAR KP59 211051Z AUTO 09005KT 04/01 A3020 RMK AO1 SLP235 T00440011





000
SAUS43 KMQT 211003 COR
MTRP53
METAR KP53 210956Z AUTO 02014KT 07/03 A3012 RMK AO1 SLP205 T00720033





000
SAUS43 KMQT 211003 COR
MTRP53
METAR KP53 210956Z AUTO 02014KT 07/03 A3012 RMK AO1 SLP205 T00720033





000
SAUS43 KMQT 210955
MTRP59
METAR KP59 210951Z AUTO 09006G14KT 05/01 A3019 RMK AO1 SLP230
T00500011





000
SAUS43 KMQT 210955
MTRP59
METAR KP59 210951Z AUTO 09006G14KT 05/01 A3019 RMK AO1 SLP230
T00500011





    US Dept of Commerce
    National Oceanic and Atmospheric Administration
    National Weather Service
    1325 East West Highway
    Silver Spring, MD 20910
    Page Author: NWS Internet Services Team
Disclaimer
Information Quality
Credits
Glossary
Privacy Policy
Freedom of Information Act (FOIA)
About Us
Career Opportunities